Time;durP1;ratioP1;P1;durP2;ratioP2;P2;SDS_P1;SDS_P2;PMS_P1;PMS_P2;Temp;Humidity;BMP_temperature;BMP_pressure;BME280_temperature;BME280_humidity;BME280_pressure;Samples;Min_cycle;Max_cycle;Signal;HPM_P1;HPM_P2
2023/03/08 00:00:06;;;;;;;;;59.00;46.33;;;;;6.48;92.34;98361.09;5095831;27;45384;-81
2023/03/08 00:02:31;;;;;;;;;56.67;46.33;;;;;6.46;92.00;98358.53;5096322;27;45621;-82
2023/03/08 00:04:57;;;;;;;;;59.33;47.00;;;;;6.44;91.87;98347.28;5095473;27;46291;-80
2023/03/08 00:07:23;;;;;;;;;61.00;47.00;;;;;6.46;92.13;98342.84;5095605;27;45343;-80
2023/03/08 00:09:48;;;;;;;;;55.00;46.00;;;;;6.46;91.83;98345.44;5095846;27;45477;-80
2023/03/08 00:12:14;;;;;;;;;54.67;44.00;;;;;6.44;92.21;98346.41;5094506;27;45473;-80
2023/03/08 00:14:39;;;;;;;;;65.67;49.00;;;;;6.43;92.29;98342.94;5094779;27;46039;-81
2023/03/08 00:17:05;;;;;;;;;55.67;45.67;;;;;6.44;92.12;98343.78;5096384;27;45336;-82
2023/03/08 00:19:30;;;;;;;;;55.33;47.00;;;;;6.43;92.34;98345.56;5096547;27;45261;-81
2023/03/08 00:21:57;;;;;;;;;53.67;42.33;;;;;6.43;92.21;98342.94;5111845;27;45647;-81
2023/03/08 00:24:23;;;;;;;;;59.00;47.33;;;;;6.43;92.32;98339.47;5096156;27;45474;-81
2023/03/08 00:26:49;;;;;;;;;56.67;44.67;;;;;6.43;92.39;98353.41;5094593;27;45273;-80
2023/03/08 00:29:14;;;;;;;;;61.67;46.33;;;;;6.43;92.56;98350.78;5094585;27;45396;-81
2023/03/08 00:31:40;;;;;;;;;55.33;44.67;;;;;6.43;92.53;98342.94;5095933;27;45357;-80
2023/03/08 00:34:05;;;;;;;;;61.33;49.33;;;;;6.44;92.34;98339.41;5094636;27;48206;-80
2023/03/08 00:36:31;;;;;;;;;60.67;46.00;;;;;6.43;92.16;98336.84;5093962;27;45274;-81
2023/03/08 00:38:56;;;;;;;;;59.67;48.67;;;;;6.43;91.84;98332.47;5095956;27;45214;-80
2023/03/08 00:41:22;;;;;;;;;52.67;44.67;;;;;6.42;92.25;98332.53;5095497;27;45521;-81
2023/03/08 00:43:48;;;;;;;;;49.33;38.33;;;;;6.41;92.59;98339.50;5094838;27;46296;-80
2023/03/08 00:46:14;;;;;;;;;57.00;46.00;;;;;6.42;92.64;98333.38;5095324;27;45577;-81
2023/03/08 00:48:40;;;;;;;;;49.33;42.33;;;;;6.42;92.72;98333.38;5095167;27;45526;-80
2023/03/08 00:51:05;;;;;;;;;58.33;47.00;;;;;6.43;92.66;98321.13;5093660;27;45568;-80
2023/03/08 00:53:31;;;;;;;;;59.00;48.33;;;;;6.43;92.36;98321.13;5093701;27;46538;-80
2023/03/08 00:55:59;;;;;;;;;60.67;48.67;;;;;6.43;92.73;98313.28;5093939;27;45399;-80
2023/03/08 00:58:27;;;;;;;;;56.33;46.67;;;;;6.43;92.49;98316.75;5093583;27;45407;-80
2023/03/08 01:00:52;;;;;;;;;54.33;44.00;;;;;6.42;92.36;98312.44;5094443;27;45345;-80
2023/03/08 01:03:20;;;;;;;;;57.67;45.33;;;;;6.43;92.59;98310.66;5094706;27;45402;-80
2023/03/08 01:05:48;;;;;;;;;65.67;47.00;;;;;6.42;92.57;98311.56;5093843;27;45446;-80
2023/03/08 01:08:15;;;;;;;;;55.00;45.00;;;;;6.42;92.35;98311.56;5096893;27;45495;-80
2023/03/08 01:10:50;;;;;;;;;59.00;46.00;;;;;6.41;92.19;98315.09;5099318;27;45493;-80
2023/03/08 01:13:17;;;;;;;;;54.33;42.00;;;;;6.40;92.44;98309.00;5097557;27;46905;-80
2023/03/08 01:15:42;;;;;;;;;60.33;45.33;;;;;6.41;92.34;98299.41;5098853;27;45282;-80
2023/03/08 01:18:08;;;;;;;;;62.00;49.00;;;;;6.39;92.35;98294.22;5097679;27;45392;-80
2023/03/08 01:20:33;;;;;;;;;66.67;48.00;;;;;6.38;92.42;98294.25;5098115;27;45543;-80
2023/03/08 01:22:59;;;;;;;;;58.00;46.33;;;;;6.39;92.46;98302.06;5114475;27;46989;-80
2023/03/08 01:25:24;;;;;;;;;63.00;48.33;;;;;6.39;92.18;98299.44;5098613;27;45414;-80
2023/03/08 01:27:50;;;;;;;;;59.33;47.33;;;;;6.41;92.60;98295.00;5096751;27;45436;-80
2023/03/08 01:30:16;;;;;;;;;56.00;41.67;;;;;6.42;92.26;98293.25;5099028;27;45486;-80
2023/03/08 01:32:41;;;;;;;;;60.00;48.33;;;;;6.42;92.06;98282.78;5098677;27;46181;-80
2023/03/08 01:35:07;;;;;;;;;56.00;47.33;;;;;6.42;92.20;98283.63;5098600;27;45438;-80
2023/03/08 01:37:33;;;;;;;;;53.33;44.33;;;;;6.43;92.24;98287.09;5097220;27;45488;-80
2023/03/08 01:39:59;;;;;;;;;58.33;46.33;;;;;6.43;92.54;98281.88;5098683;27;45341;-80
2023/03/08 01:42:25;;;;;;;;;56.00;44.00;;;;;6.40;92.51;98279.34;5098474;27;45395;-80
2023/03/08 01:45:00;;;;;;;;;52.33;43.00;;;;;6.38;92.65;98273.31;5097349;27;45385;-80
2023/03/08 01:47:28;;;;;;;;;59.67;47.33;;;;;6.37;92.94;98276.88;5096701;27;45454;-80
2023/03/08 01:49:58;;;;;;;;;51.33;41.67;;;;;6.35;92.58;98289.16;5098041;27;45424;-79
2023/03/08 01:52:41;;;;;;;;;57.67;41.00;;;;;6.30;92.57;98274.47;5098279;27;46302;-80
2023/03/08 01:55:11;;;;;;;;;58.00;45.33;;;;;6.30;92.55;98273.63;5097994;27;45438;-80
2023/03/08 01:57:44;;;;;;;;;59.00;43.33;;;;;6.26;93.11;98259.78;5097473;27;45426;-80
2023/03/08 02:00:13;;;;;;;;;52.33;43.33;;;;;6.24;92.70;98271.22;5098371;27;45314;-80
2023/03/08 02:02:43;;;;;;;;;54.33;42.67;;;;;6.22;93.13;98263.41;5098643;27;45483;-79
2023/03/08 02:05:10;;;;;;;;;58.00;42.67;;;;;6.20;92.98;98254.75;5097969;27;45458;-80
2023/03/08 02:07:35;;;;;;;;;43.33;39.33;;;;;6.20;93.16;98262.63;5098090;27;45383;-80
2023/03/08 02:10:01;;;;;;;;;33.00;28.33;;;;;6.17;92.78;98251.44;5096576;27;45487;-80
2023/03/08 02:12:27;;;;;;;;;41.00;29.67;;;;;6.16;92.15;98254.94;5098245;27;45419;-80
2023/03/08 02:14:55;;;;;;;;;43.67;37.67;;;;;6.14;92.16;98249.78;5096180;27;45361;-80
2023/03/08 02:17:21;;;;;;;;;49.00;41.33;;;;;6.14;92.96;98251.53;5096750;27;45494;-80
2023/03/08 02:19:58;;;;;;;;;56.00;42.67;;;;;6.15;92.75;98253.25;5095708;27;45526;-80
2023/03/08 02:22:25;;;;;;;;;53.33;42.33;;;;;6.15;93.14;98254.09;5096609;27;46877;-80
2023/03/08 02:24:50;;;;;;;;;57.33;42.00;;;;;6.16;93.07;98249.72;5077580;27;45270;-80
2023/03/08 02:27:22;;;;;;;;;52.67;43.00;;;;;6.16;93.01;98249.72;5090481;27;45500;-80
2023/03/08 02:29:48;;;;;;;;;59.00;45.00;;;;;6.15;93.13;98240.16;5084590;27;45458;-80
2023/03/08 02:32:14;;;;;;;;;61.00;47.33;;;;;6.14;93.21;98238.44;5097215;27;45710;-80
2023/03/08 02:34:40;;;;;;;;;57.33;47.33;;;;;6.15;93.14;98237.53;5097535;27;45364;-80
2023/03/08 02:37:05;;;;;;;;;43.67;37.00;;;;;6.12;92.93;98235.03;5095535;27;45448;-80
2023/03/08 02:39:31;;;;;;;;;53.33;42.00;;;;;6.10;92.87;98229.00;5096961;27;45529;-80
2023/03/08 02:41:56;;;;;;;;;53.67;40.33;;;;;6.08;93.29;98239.50;5096836;27;45990;-80
2023/03/08 02:44:22;;;;;;;;;50.00;38.67;;;;;6.07;92.61;98245.66;5097524;27;45328;-80
2023/03/08 02:46:47;;;;;;;;;58.33;44.00;;;;;6.07;92.86;98248.28;5096504;27;45473;-80
2023/03/08 02:49:13;;;;;;;;;58.33;45.67;;;;;6.04;92.95;98245.75;5096344;27;45639;-80
2023/03/08 02:51:38;;;;;;;;;54.67;45.33;;;;;6.04;92.67;98237.91;5097091;27;45615;-80
2023/03/08 02:54:04;;;;;;;;;55.00;46.00;;;;;6.02;93.03;98234.53;5097784;27;45242;-80
2023/03/08 02:56:29;;;;;;;;;53.67;41.67;;;;;6.03;93.07;98230.16;5097422;27;45514;-80
2023/03/08 02:58:55;;;;;;;;;54.33;40.67;;;;;6.00;92.91;98212.78;5097233;27;45424;-81
2023/03/08 03:01:20;;;;;;;;;50.67;41.33;;;;;6.00;93.24;98207.56;5097042;27;46070;-80
2023/03/08 03:03:46;;;;;;;;;50.33;38.67;;;;;6.01;93.03;98211.03;5097497;27;45350;-81
2023/03/08 03:06:14;;;;;;;;;39.33;33.67;;;;;6.01;92.76;98211.88;5095855;27;45341;-81
2023/03/08 03:08:39;;;;;;;;;54.00;41.67;;;;;6.05;93.00;98210.00;5083735;27;45467;-80
2023/03/08 03:11:16;;;;;;;;;50.67;39.67;;;;;6.07;92.91;98208.19;5096612;27;45391;-80
2023/03/08 03:13:42;;;;;;;;;50.00;42.00;;;;;6.08;93.15;98213.34;5097422;27;45304;-81
2023/03/08 03:16:14;;;;;;;;;45.67;38.67;;;;;6.10;93.28;98202.84;5095906;27;45272;-81
2023/03/08 03:18:40;;;;;;;;;43.00;32.33;;;;;6.13;92.77;98203.56;5095721;27;45594;-81
2023/03/08 03:21:08;;;;;;;;;29.00;19.00;;;;;6.17;92.06;98212.19;5112438;27;47045;-80
2023/03/08 03:23:34;;;;;;;;;20.00;19.33;;;;;6.19;91.12;98195.50;5095715;27;45429;-80
2023/03/08 03:26:09;;;;;;;;;21.00;18.67;;;;;6.23;90.43;98183.16;5095663;27;45432;-81
2023/03/08 03:28:34;;;;;;;;;21.33;21.00;;;;;6.27;90.40;98177.75;5095869;27;45447;-81
2023/03/08 03:31:00;;;;;;;;;22.33;18.67;;;;;6.29;89.89;98177.69;5094335;27;47619;-81
2023/03/08 03:33:26;;;;;;;;;19.00;17.00;;;;;6.35;89.85;98187.94;5096855;27;45377;-81
2023/03/08 03:35:52;;;;;;;;;18.00;16.33;;;;;6.38;89.35;98195.66;5096461;27;45458;-80
2023/03/08 03:38:17;;;;;;;;;14.33;10.67;;;;;6.41;89.17;98197.28;5096967;27;45419;-81
2023/03/08 03:40:43;;;;;;;;;10.33;10.00;;;;;6.41;88.70;98179.81;5096511;27;45407;-81
2023/03/08 03:43:08;;;;;;;;;8.67;8.67;;;;;6.45;88.36;98181.41;5096326;27;45529;-81
2023/03/08 03:45:34;;;;;;;;;8.00;7.00;;;;;6.47;87.45;98186.59;5095689;27;45457;-81
2023/03/08 03:47:59;;;;;;;;;10.67;9.00;;;;;6.48;87.47;98191.78;5095068;27;45578;-81
2023/03/08 03:50:24;;;;;;;;;9.67;8.00;;;;;6.48;87.58;98189.16;5094910;27;46917;-81
2023/03/08 03:52:50;;;;;;;;;11.33;9.00;;;;;6.50;87.52;98195.19;5095368;27;45409;-81
2023/03/08 03:55:15;;;;;;;;;9.67;9.00;;;;;6.51;87.78;98189.06;5095523;27;45265;-81
2023/03/08 03:57:41;;;;;;;;;9.33;9.00;;;;;6.53;87.81;98194.22;5096708;27;45233;-81
2023/03/08 04:00:07;;;;;;;;;10.33;9.67;;;;;6.53;88.06;98192.47;5095083;27;46612;-80
2023/03/08 04:02:33;;;;;;;;;9.00;9.00;;;;;6.54;87.70;98193.28;5095271;27;45293;-81
2023/03/08 04:04:58;;;;;;;;;8.00;8.00;;;;;6.58;87.62;98195.75;5096372;27;45346;-81
2023/03/08 04:07:23;;;;;;;;;9.00;9.00;;;;;6.60;87.78;98196.53;5096665;27;45311;-81
2023/03/08 04:09:49;;;;;;;;;10.00;8.67;;;;;6.61;87.25;98189.53;5112264;27;46603;-80
2023/03/08 04:12:14;;;;;;;;;9.00;8.00;;;;;6.64;87.45;98181.56;5096411;27;45401;-80
2023/03/08 04:14:40;;;;;;;;;8.33;7.00;;;;;6.65;87.68;98178.88;5096402;27;45489;-80
2023/03/08 04:17:06;;;;;;;;;9.33;9.00;;;;;6.67;87.58;98188.44;5095123;27;45498;-80
2023/03/08 04:19:31;;;;;;;;;9.33;8.00;;;;;6.69;87.03;98184.88;5095942;27;45505;-80
2023/03/08 04:21:57;;;;;;;;;7.67;7.67;;;;;6.71;86.77;98184.78;5094489;27;45461;-81
2023/03/08 04:24:22;;;;;;;;;8.00;6.33;;;;;6.73;87.07;98177.72;5094363;27;45635;-81
2023/03/08 04:26:48;;;;;;;;;8.33;7.33;;;;;6.75;86.67;98181.97;5096180;27;45356;-81
2023/03/08 04:29:13;;;;;;;;;9.00;7.00;;;;;6.77;86.74;98192.41;5095610;27;45541;-81
2023/03/08 04:31:39;;;;;;;;;8.33;7.67;;;;;6.78;87.25;98174.00;5110619;27;45486;-81
2023/03/08 04:34:04;;;;;;;;;5.67;5.67;;;;;6.81;87.42;98159.94;5095926;27;45363;-81
2023/03/08 04:36:30;;;;;;;;;9.67;8.00;;;;;6.83;87.22;98158.97;5094738;27;45767;-80
2023/03/08 04:38:56;;;;;;;;;6.67;5.00;;;;;6.83;87.05;98150.25;5095903;27;45425;-80
2023/03/08 04:41:22;;;;;;;;;6.00;5.67;;;;;6.85;86.22;98159.75;5096278;27;45422;-81
2023/03/08 04:43:56;;;;;;;;;4.00;4.00;;;;;6.86;86.94;98158.00;5094452;27;45384;-80
2023/03/08 04:46:24;;;;;;;;;4.33;3.00;;;;;6.86;86.37;98169.31;5096160;27;45330;-80
2023/03/08 04:48:54;;;;;;;;;4.33;4.33;;;;;6.85;85.59;98172.00;5095705;27;45443;-80
2023/03/08 04:51:21;;;;;;;;;8.00;7.00;;;;;6.85;85.81;98166.75;5095784;27;45330;-80
2023/03/08 04:53:47;;;;;;;;;8.00;5.00;;;;;6.82;85.19;98159.03;5095704;27;45360;-80
2023/03/08 04:56:14;;;;;;;;;3.00;3.00;;;;;6.82;84.91;98159.03;5095546;27;45389;-80
2023/03/08 04:58:41;;;;;;;;;5.00;5.00;;;;;6.83;85.50;98158.97;5093832;27;45418;-80
2023/03/08 05:01:12;;;;;;;;;7.00;5.00;;;;;6.86;85.67;98164.09;5094802;27;45518;-80
2023/03/08 05:03:37;;;;;;;;;10.67;8.00;;;;;6.85;85.04;98157.16;5111185;27;45461;-80
2023/03/08 05:06:03;;;;;;;;;10.67;8.00;;;;;6.87;86.35;98154.47;5095344;27;45209;-80
2023/03/08 05:08:29;;;;;;;;;8.67;7.67;;;;;6.88;87.03;98162.22;5095320;27;47231;-79
2023/03/08 05:10:57;;;;;;;;;8.00;7.00;;;;;6.90;87.18;98167.41;5095631;27;45498;-79
2023/03/08 05:13:24;;;;;;;;;4.67;4.67;;;;;6.91;86.97;98174.34;5095235;27;45376;-79
2023/03/08 05:15:49;;;;;;;;;7.00;4.33;;;;;6.91;86.29;98176.97;5094752;27;45345;-79
2023/03/08 05:18:15;;;;;;;;;9.75;7.25;;;;;6.90;85.14;98167.41;5095050;27;45606;-79
2023/03/08 05:20:40;;;;;;;;;7.50;5.00;;;;;6.92;86.60;98176.91;5093462;27;45492;-79
2023/03/08 05:23:06;;;;;;;;;7.00;5.00;;;;;6.93;86.47;98169.91;5093560;27;45419;-79
2023/03/08 05:25:32;;;;;;;;;8.67;7.00;;;;;6.94;86.51;98180.34;5094921;27;45486;-79
2023/03/08 05:27:58;;;;;;;;;9.00;8.00;;;;;6.97;86.68;98179.34;5094005;27;46440;-79
2023/03/08 05:30:23;;;;;;;;;11.00;9.33;;;;;6.99;86.30;98180.16;5093399;27;45327;-79
2023/03/08 05:32:49;;;;;;;;;16.67;14.00;;;;;7.02;86.47;98169.56;5093261;27;45348;-79
2023/03/08 05:35:14;;;;;;;;;14.67;12.67;;;;;7.03;86.71;98173.88;5094855;27;45332;-78
2023/03/08 05:37:40;;;;;;;;;10.67;9.00;;;;;7.04;86.58;98183.41;5093131;27;47176;-80
2023/03/08 05:40:06;;;;;;;;;13.00;11.00;;;;;7.07;86.31;98179.81;5093660;27;45482;-80
2023/03/08 05:42:32;;;;;;;;;11.33;10.00;;;;;7.09;86.32;98188.47;5094996;27;45311;-81
2023/03/08 05:44:58;;;;;;;;;10.00;9.00;;;;;7.10;86.61;98188.41;5094930;27;45604;-78
2023/03/08 05:47:24;;;;;;;;;10.67;9.33;;;;;7.11;86.30;98187.50;5094900;27;45413;-79
2023/03/08 05:49:50;;;;;;;;;11.67;10.00;;;;;7.11;86.44;98179.66;5093105;27;45444;-80
2023/03/08 05:52:15;;;;;;;;;21.67;16.00;;;;;7.11;86.99;98192.75;5094690;27;45396;-81
2023/03/08 05:54:41;;;;;;;;;17.00;15.00;;;;;7.09;86.78;98202.44;5094145;27;45320;-80
2023/03/08 05:57:06;;;;;;;;;17.00;16.67;;;;;7.11;86.89;98197.13;5098360;27;46254;-81
2023/03/08 05:59:32;;;;;;;;;21.33;17.33;;;;;7.12;87.26;98204.09;5096773;27;45369;-81
2023/03/08 06:01:57;;;;;;;;;17.33;17.00;;;;;7.12;87.16;98199.69;5098079;27;45455;-80
2023/03/08 06:04:23;;;;;;;;;23.00;18.33;;;;;7.14;87.18;98197.00;5096309;27;45384;-81
2023/03/08 06:06:48;;;;;;;;;22.00;18.00;;;;;7.16;87.83;98205.66;5097394;27;45999;-81
2023/03/08 06:09:14;;;;;;;;;23.67;17.33;;;;;7.17;88.05;98212.63;5096623;27;45376;-81
2023/03/08 06:11:39;;;;;;;;;21.00;20.33;;;;;7.19;88.54;98211.66;5097718;27;45240;-81
2023/03/08 06:14:05;;;;;;;;;18.33;17.00;;;;;7.21;88.75;98208.94;5097296;27;45539;-81
2023/03/08 06:16:30;;;;;;;;;16.67;15.67;;;;;7.21;88.33;98219.41;5097381;27;46561;-81
2023/03/08 06:18:55;;;;;;;;;24.33;18.67;;;;;7.19;88.44;98223.91;5097691;27;45378;-81
2023/03/08 06:21:21;;;;;;;;;23.67;21.00;;;;;7.17;88.11;98223.09;5097132;27;45407;-81
2023/03/08 06:23:48;;;;;;;;;26.00;22.67;;;;;7.16;88.39;98219.63;5096997;27;45448;-81
2023/03/08 06:26:15;;;;;;;;;29.33;28.00;;;;;7.13;88.75;98211.03;5094757;27;47491;-81
2023/03/08 06:28:41;;;;;;;;;26.67;23.33;;;;;7.11;88.68;98220.72;5096478;27;45351;-81
2023/03/08 06:31:10;;;;;;;;;26.00;23.33;;;;;7.09;89.10;98223.41;5097256;27;45563;-80
2023/03/08 06:33:36;;;;;;;;;26.67;24.67;;;;;7.09;89.22;98235.66;5097083;27;45563;-80
2023/03/08 06:36:07;;;;;;;;;23.33;21.33;;;;;7.07;89.36;98243.56;5096884;27;46459;-80
2023/03/08 06:38:35;;;;;;;;;23.33;22.00;;;;;7.07;89.54;98250.56;5097214;27;45319;-80
2023/03/08 06:41:01;;;;;;;;;20.67;19.33;;;;;7.06;89.75;98265.44;5097075;27;45410;-81
2023/03/08 06:43:27;;;;;;;;;28.33;24.33;;;;;7.06;89.63;98261.97;5096349;27;45518;-80
2023/03/08 06:45:53;;;;;;;;;29.67;26.33;;;;;7.06;89.49;98257.59;5093831;27;48332;-80
2023/03/08 06:48:18;;;;;;;;;25.00;21.33;;;;;7.06;89.58;98260.22;5095335;27;45414;-80
2023/03/08 06:50:44;;;;;;;;;21.00;19.67;;;;;7.05;89.80;98262.88;5095840;27;45495;-80
2023/03/08 06:53:10;;;;;;;;;24.00;22.00;;;;;7.07;89.86;98264.53;5096908;27;45379;-80
2023/03/08 06:55:38;;;;;;;;;23.00;16.67;;;;;7.07;89.41;98272.41;5096521;27;45427;-80
2023/03/08 06:58:04;;;;;;;;;14.00;14.00;;;;;7.10;89.67;98288.00;5095095;27;45453;-81
2023/03/08 07:00:29;;;;;;;;;18.67;17.00;;;;;7.11;89.98;98294.09;5096413;27;45552;-80
2023/03/08 07:02:55;;;;;;;;;19.67;16.67;;;;;7.13;89.69;98297.53;5096595;27;45477;-80
2023/03/08 07:05:23;;;;;;;;;15.67;15.67;;;;;7.15;90.16;98288.69;5095252;27;45422;-80
2023/03/08 07:07:48;;;;;;;;;19.67;18.33;;;;;7.18;90.34;98285.94;5096636;27;45485;-80
2023/03/08 07:10:15;;;;;;;;;21.00;17.33;;;;;7.21;90.08;98280.56;5095805;27;45450;-80
2023/03/08 07:12:42;;;;;;;;;23.00;21.00;;;;;7.25;90.27;98274.28;5096123;27;45339;-80
2023/03/08 07:15:17;;;;;;;;;18.67;17.00;;;;;7.25;89.62;98283.91;5096086;27;45726;-80
2023/03/08 07:17:44;;;;;;;;;19.33;16.67;;;;;7.24;89.69;98287.44;5096132;27;45257;-80
2023/03/08 07:20:11;;;;;;;;;17.00;15.67;;;;;7.25;90.11;98276.06;5096255;27;45468;-80
2023/03/08 07:22:37;;;;;;;;;21.33;20.00;;;;;7.24;90.41;98279.59;5095486;27;45423;-80
2023/03/08 07:25:02;;;;;;;;;21.00;19.00;;;;;7.23;90.40;98288.38;5095603;27;46144;-80
2023/03/08 07:27:28;;;;;;;;;22.33;21.33;;;;;7.25;90.31;98286.53;5093355;27;45457;-80
2023/03/08 07:29:53;;;;;;;;;24.00;21.67;;;;;7.26;90.34;98291.72;5096136;27;45840;-80
2023/03/08 07:32:18;;;;;;;;;31.00;25.33;;;;;7.29;90.53;98302.09;5096316;27;45430;-80
2023/03/08 07:34:44;;;;;;;;;30.67;23.00;;;;;7.31;90.32;98299.41;5093985;27;47124;-79
2023/03/08 07:37:14;;;;;;;;;28.67;23.33;;;;;7.32;90.20;98301.97;5111352;27;45436;-80
2023/03/08 07:39:40;;;;;;;;;27.67;23.00;;;;;7.30;90.25;98292.47;5094296;27;45429;-80
2023/03/08 07:42:06;;;;;;;;;24.00;21.00;;;;;7.31;90.53;98283.69;5095376;27;45455;-81
2023/03/08 07:44:31;;;;;;;;;20.67;17.00;;;;;7.32;90.29;98290.63;5111566;27;46558;-80
2023/03/08 07:46:57;;;;;;;;;28.67;22.67;;;;;7.32;90.21;98301.13;5094072;27;45493;-80
2023/03/08 07:49:22;;;;;;;;;27.00;23.33;;;;;7.37;90.74;98298.31;5095742;27;45404;-80
2023/03/08 07:51:50;;;;;;;;;27.67;21.00;;;;;7.40;90.78;98295.56;5095443;27;45605;-80
2023/03/08 07:54:16;;;;;;;;;23.33;18.67;;;;;7.41;90.31;98299.88;5094060;27;47050;-80
2023/03/08 07:56:41;;;;;;;;;23.33;22.67;;;;;7.43;90.05;98298.06;5095395;27;45409;-80
2023/03/08 07:59:07;;;;;;;;;24.33;21.67;;;;;7.41;90.24;98295.50;5095564;27;45437;-80
2023/03/08 08:01:32;;;;;;;;;21.67;20.00;;;;;7.43;90.70;98303.31;5095206;27;45325;-80
2023/03/08 08:03:59;;;;;;;;;57.00;47.00;;;;;7.45;90.09;98290.97;5094784;27;46051;-79
2023/03/08 08:06:26;;;;;;;;;27.00;25.67;;;;;7.47;90.10;98297.03;5110791;27;45669;-80
2023/03/08 08:08:53;;;;;;;;;25.67;18.00;;;;;7.46;89.89;98298.78;5095359;27;45496;-79
2023/03/08 08:11:18;;;;;;;;;28.33;24.00;;;;;7.48;90.49;98298.72;5094820;27;45596;-80
2023/03/08 08:13:45;;;;;;;;;24.67;21.67;;;;;7.51;90.05;98296.84;5094635;27;46064;-80
2023/03/08 08:16:12;;;;;;;;;27.00;24.00;;;;;7.53;89.84;98308.13;5093191;27;45453;-79
2023/03/08 08:18:38;;;;;;;;;23.00;21.33;;;;;7.57;89.83;98306.22;5094644;27;45571;-79
2023/03/08 08:21:09;;;;;;;;;20.67;19.00;;;;;7.60;89.58;98306.94;5094617;27;45362;-79
2023/03/08 08:23:38;;;;;;;;;25.00;23.00;;;;;7.65;89.60;98310.25;5094779;27;46190;-79
2023/03/08 08:26:06;;;;;;;;;19.00;19.00;;;;;7.68;89.38;98304.03;5093299;27;45446;-79
2023/03/08 08:28:32;;;;;;;;;27.33;22.67;;;;;7.69;88.78;98305.72;5093535;27;45704;-80
2023/03/08 08:31:04;;;;;;;;;26.00;21.67;;;;;7.68;89.11;98304.88;5093641;27;45568;-80
2023/03/08 08:33:30;;;;;;;;;20.67;18.67;;;;;7.65;89.28;98317.25;5095160;27;46307;-79
2023/03/08 08:35:56;;;;;;;;;36.67;31.00;;;;;7.67;89.62;98308.41;5094200;27;45527;-79
2023/03/08 08:38:21;;;;;;;;;19.00;17.00;;;;;7.71;89.47;98309.09;5094914;27;45385;-79
2023/03/08 08:40:47;;;;;;;;;22.67;20.67;;;;;7.75;89.28;98305.44;5094653;27;45454;-79
2023/03/08 08:43:12;;;;;;;;;21.67;21.67;;;;;7.82;89.18;98303.44;5093585;27;45624;-79
2023/03/08 08:45:51;;;;;;;;;24.33;20.67;;;;;7.89;89.46;98318.00;5094811;27;45365;-79
2023/03/08 08:48:17;;;;;;;;;18.33;17.67;;;;;7.93;89.17;98323.06;5095093;27;45274;-79
2023/03/08 08:50:42;;;;;;;;;21.67;19.33;;;;;7.98;89.19;98322.88;5094223;27;45470;-79
2023/03/08 08:53:09;;;;;;;;;15.00;11.67;;;;;8.01;89.18;98326.22;5094734;27;46809;-80
2023/03/08 08:55:34;;;;;;;;;20.33;18.00;;;;;8.04;88.99;98328.69;5095047;27;45370;-79
2023/03/08 08:58:01;;;;;;;;;19.67;18.33;;;;;8.10;88.71;98330.22;5095090;27;45328;-79
2023/03/08 09:00:47;;;;;;;;;19.00;19.00;;;;;8.16;88.74;98340.47;5094450;27;45563;-80
2023/03/08 09:03:13;;;;;;;;;22.00;21.67;;;;;8.18;88.45;98333.38;5094056;27;45463;-79
2023/03/08 09:05:41;;;;;;;;;27.67;23.33;;;;;8.21;88.66;98335.84;5092624;27;45415;-80
2023/03/08 09:08:07;;;;;;;;;25.00;21.00;;;;;8.23;88.88;98331.38;5094261;27;45367;-80
2023/03/08 09:10:35;;;;;;;;;25.33;22.00;;;;;8.27;88.82;98324.22;5093904;27;45277;-79
2023/03/08 09:13:01;;;;;;;;;23.67;20.33;;;;;8.30;88.91;98324.94;5094638;27;45579;-80
2023/03/08 09:15:26;;;;;;;;;26.33;22.67;;;;;8.37;88.99;98312.44;5094404;27;45396;-80
2023/03/08 09:17:52;;;;;;;;;24.33;22.00;;;;;8.44;88.46;98310.38;5094279;27;45352;-79
2023/03/08 09:20:18;;;;;;;;;25.00;19.33;;;;;8.51;88.36;98309.22;5094527;27;45414;-80
2023/03/08 09:22:43;;;;;;;;;26.33;23.33;;;;;8.59;88.40;98313.19;5094939;27;45423;-80
2023/03/08 09:25:10;;;;;;;;;25.00;21.33;;;;;8.69;88.51;98308.38;5094353;27;45322;-80
2023/03/08 09:27:37;;;;;;;;;24.00;20.00;;;;;8.79;88.44;98306.16;5094884;27;45423;-80
2023/03/08 09:30:04;;;;;;;;;20.00;17.33;;;;;8.85;87.44;98300.66;5096683;27;45390;-80
2023/03/08 09:32:33;;;;;;;;;24.33;18.33;;;;;8.90;87.03;98296.84;5097903;27;45484;-80
2023/03/08 09:34:58;;;;;;;;;21.33;19.00;;;;;8.96;86.94;98304.47;5097533;27;45450;-80
2023/03/08 09:37:24;;;;;;;;;22.67;20.33;;;;;9.02;86.95;98301.56;5097086;27;45390;-80
2023/03/08 09:39:51;;;;;;;;;20.33;18.67;;;;;9.09;86.69;98297.72;5095980;27;45529;-79
2023/03/08 09:42:23;;;;;;;;;18.67;18.00;;;;;9.17;86.70;98285.97;5096768;27;45776;-80
2023/03/08 09:44:49;;;;;;;;;21.67;21.00;;;;;9.29;86.81;98278.34;5098003;27;45457;-79
2023/03/08 09:47:17;;;;;;;;;20.33;17.33;;;;;9.41;86.40;98280.38;5097569;27;45631;-79
2023/03/08 09:49:45;;;;;;;;;23.00;20.00;;;;;9.51;85.76;98293.09;5095662;27;45563;-79
2023/03/08 09:52:32;;;;;;;;;18.33;18.00;;;;;9.59;84.88;98286.50;5097464;27;46691;-79
2023/03/08 09:54:59;;;;;;;;;20.67;19.00;;;;;9.69;84.87;98285.16;5097307;27;45454;-80
2023/03/08 09:57:31;;;;;;;;;24.33;24.33;;;;;9.83;85.15;98268.66;5096719;27;45324;-80
2023/03/08 10:00:07;;;;;;;;;22.33;18.67;;;;;9.97;83.26;98267.94;5097845;27;45715;-79
2023/03/08 10:02:54;;;;;;;;;23.00;19.00;;;;;10.08;83.57;98263.81;5097473;27;45378;-80
2023/03/08 10:05:29;;;;;;;;;28.33;19.67;;;;;10.27;83.07;98261.13;5097075;27;45521;-80
2023/03/08 10:08:39;;;;;;;;;23.67;23.67;;;;;10.37;82.38;98262.34;5097477;27;45470;-81
2023/03/08 10:11:33;;;;;;;;;13.00;8.67;;;;;10.40;82.34;98266.59;5059443;27;45350;-81
2023/03/08 10:14:08;;;;;;;;;27.33;23.33;;;;;10.38;81.08;98276.38;5071218;27;45500;-79
2023/03/08 10:16:49;;;;;;;;;29.00;25.33;;;;;10.39;81.51;98273.63;5096241;27;45421;-81
2023/03/08 10:19:22;;;;;;;;;25.67;22.00;;;;;10.42;81.32;98256.81;5097446;27;45422;-81
2023/03/08 10:21:50;;;;;;;;;22.33;21.67;;;;;10.49;81.24;98252.94;5097512;27;45406;-81
2023/03/08 10:24:15;;;;;;;;;25.33;20.67;;;;;10.62;81.91;98224.13;5097284;27;45759;-81
2023/03/08 10:26:42;;;;;;;;;24.67;21.33;;;;;10.75;81.34;98227.78;5095332;27;45321;-80
2023/03/08 10:29:12;;;;;;;;;26.67;22.67;;;;;10.88;81.14;98230.63;5097399;27;45451;-80
2023/03/08 10:31:41;;;;;;;;;20.00;18.33;;;;;11.01;81.54;98216.66;5095644;27;45685;-80
2023/03/08 10:34:17;;;;;;;;;23.00;17.67;;;;;11.16;81.58;98221.06;5095647;27;45398;-82
2023/03/08 10:36:58;;;;;;;;;18.00;16.00;;;;;11.30;80.92;98227.34;5095292;27;45345;-80
2023/03/08 10:39:24;;;;;;;;;20.75;19.00;;;;;11.40;80.41;98231.13;5097295;27;45455;-81
2023/03/08 10:41:56;;;;;;;;;20.75;18.75;;;;;11.50;80.72;98234.97;5096176;27;45544;-80
2023/03/08 10:44:35;;;;;;;;;24.67;21.00;;;;;11.58;81.01;98242.41;5096915;27;45466;-80
2023/03/08 10:47:11;;;;;;;;;13.50;11.50;;;;;11.62;81.24;98236.88;5095012;27;45358;-81
2023/03/08 10:49:36;;;;;;;;;24.00;21.33;;;;;11.69;80.81;98232.94;5095348;27;45395;-80
2023/03/08 10:52:02;;;;;;;;;17.75;16.75;;;;;11.77;80.25;98229.88;5096551;27;45519;-81
2023/03/08 10:54:28;;;;;;;;;25.33;22.67;;;;;11.85;80.68;98230.28;5096634;27;45414;-81
2023/03/08 10:56:59;;;;;;;;;18.50;15.50;;;;;11.96;80.26;98222.56;5095269;27;45390;-81
2023/03/08 10:59:36;;;;;;;;;20.50;19.00;;;;;12.06;79.80;98229.00;5096076;27;45352;-80
2023/03/08 11:02:01;;;;;;;;;23.00;20.75;;;;;12.12;79.61;98228.63;5095941;27;45477;-80
2023/03/08 11:04:29;;;;;;;;;18.00;18.00;;;;;12.17;79.16;98231.84;5093764;27;45522;-80
2023/03/08 11:06:54;;;;;;;;;15.50;15.50;;;;;12.23;79.02;98235.91;5096065;27;45522;-80
2023/03/08 11:09:30;;;;;;;;;16.50;14.00;;;;;12.25;79.06;98228.72;5094978;27;45433;-80
2023/03/08 11:11:58;;;;;;;;;9.75;8.00;;;;;12.22;78.51;98235.06;5083278;27;45302;-80
2023/03/08 11:14:24;;;;;;;;;23.75;19.75;;;;;12.15;78.19;98217.88;5095958;27;45400;-80
2023/03/08 11:17:11;;;;;;;;;20.25;14.00;;;;;12.08;78.04;98221.81;5096080;27;45406;-81
2023/03/08 11:20:09;;;;;;;;;18.50;14.25;;;;;12.00;77.77;98232.00;5094527;27;45513;-80
2023/03/08 11:22:53;;;;;;;;;14.75;13.25;;;;;11.84;77.48;98232.06;5094470;27;45541;-80
2023/03/08 11:25:31;;;;;;;;;20.75;19.50;;;;;11.73;77.75;98231.81;5093969;27;47353;-80
2023/03/08 11:28:18;;;;;;;;;17.25;17.00;;;;;11.66;78.10;98219.06;5095890;27;45366;-79